Latest Weather Observations for Gayndah

IDQ60801

Issued at 2:32 pm EST Saturday 21 October 2017 (issued every 30 minutes, with the page automatically refreshed every 10 minutes)

About weather observations | Map of weather stations | Latest weather observations for QLD | Other Formats
Station Details ID: 039066 Name: GAYNDAH AIRPORT Lat: -25.62 Lon: 151.62 Height: 110.9 m
Data from the previous 72 hours. | See also: Recent months at Gayndah
Date/Time
EST
Temp
°C
App
Temp
°C
Dew
Point
°C
Rel
Hum
%
Delta-T
°C
Wind Press
QNH
hPa
Press
MSL
hPa
Rain since
9am
mm
Dir  Spd
km/h
Gust
km/h
Spd
kts
Gust
kts
21/02:30pm 20.0 21.6 17.8 87 1.4 SW 6 9 3 5 1012.7 1012.3 1.0
21/02:00pm 20.5 22.3 18.3 87 1.4 WSW 6 9 3 5 1012.8 1012.4 1.0
21/01:30pm 20.6 22.4 18.2 86 1.5 SW 6 9 3 5 1013.2 1012.8 1.0
21/01:00pm 20.6 22.3 18.4 87 1.4 SW 7 9 4 5 1013.6 1013.2 1.0
21/12:30pm 20.5 21.4 18.4 88 1.3 SW 11 15 6 8 1014.4 1013.9 0.8
21/12:00pm 21.0 22.7 18.0 83 1.9 NNE 6 7 3 4 1014.3 1013.8 0.6
21/11:30am 20.8 22.4 17.8 83 1.9 N 6 7 3 4 1015.0 1014.5 0.2
21/11:00am 21.0 22.6 17.8 82 2.0 N 6 9 3 5 1015.2 1014.7 0.0
21/10:30am 21.0 23.4 18.0 83 1.9 NNE 2 9 1 5 1015.3 1014.8 0.0
21/10:00am 20.7 22.2 17.7 83 1.9 NNE 6 11 3 6 1015.7 1015.2 0.0
21/09:30am 20.4 22.2 18.2 87 1.4 N 6 9 3 5 1016.0 1015.5 0.0
21/09:00am 19.8 20.9 18.1 90 1.1 NE 9 13 5 7 1015.3 1014.8 -
21/08:30am 19.4 21.5 17.2 87 1.3 WNW 2 6 1 3 1016.1 1015.6 -
21/08:00am 19.1 21.1 17.8 92 0.8 WNW 4 6 2 3 1016.2 1015.7 -
21/07:30am 19.0 20.8 17.3 90 1.0 NW 4 6 2 3 1016.3 1015.8 -
21/07:00am 19.2 21.0 17.3 89 1.2 WSW 4 6 2 3 1016.2 1015.7 -
21/06:30am 19.4 21.8 17.0 86 1.5 CALM 0 0 0 0 1016.1 1015.6 -
21/06:00am 19.2 21.5 16.8 86 1.5 CALM 0 0 0 0 1015.9 1015.4 -
21/05:30am 19.1 20.5 16.5 85 1.6 ESE 4 6 2 3 1015.6 1015.1 -
21/05:00am 19.1 21.5 16.9 87 1.3 CALM 0 0 0 0 1015.5 1015.0 -
21/04:30am 19.1 21.5 17.1 88 1.2 CALM 0 0 0 0 1015.4 1014.9 -
21/04:00am 19.0 20.1 16.6 86 1.4 SW 6 9 3 5 1015.2 1014.7 -
21/03:30am 19.0 21.3 16.8 87 1.3 CALM 0 0 0 0 1015.1 1014.6 -
21/03:00am 18.8 20.2 16.4 86 1.4 E 4 4 2 2 1015.2 1014.7 0.0
21/02:30am 18.9 21.1 16.5 86 1.4 CALM 0 0 0 0 1015.2 1014.7 -
21/02:00am 18.8 21.0 16.4 86 1.4 CALM 0 0 0 0 1015.6 1015.1 -
21/01:30am 18.5 20.5 16.1 86 1.4 CALM 0 2 0 1 1015.8 1015.3 -
21/01:00am 18.6 19.9 16.2 86 1.4 E 4 6 2 3 1016.1 1015.6 -
21/12:30am 18.9 20.0 16.5 86 1.4 E 6 6 3 3 1016.4 1015.9 -
21/12:00am 18.9 20.3 16.3 85 1.6 ENE 4 4 2 2 1017.0 1016.5 -
 
Date/Time
EST
Temp
°C
App
Temp
°C
Dew
Point
°C
Rel
Hum
%
Delta-T
°C
Wind Press
QNH
hPa
Press
MSL
hPa
Rain since
9am
mm
Dir  Spd
km/h
Gust
km/h
Spd
kts
Gust
kts
20/11:30pm 19.0 20.4 16.4 85 1.6 ENE 4 6 2 3 1017.3 1016.8 -
20/11:00pm 19.2 20.2 16.4 84 1.7 E 6 6 3 3 1017.5 1017.0 -
20/10:30pm 19.5 20.2 16.2 81 2.0 ENE 7 7 4 4 1017.8 1017.3 -
20/10:00pm 19.6 20.3 16.1 80 2.1 NE 7 11 4 6 1017.8 1017.3 -
20/09:30pm 20.0 20.3 16.0 78 2.4 ENE 9 13 5 7 1017.8 1017.3 -
20/09:00pm 20.4 20.7 16.0 76 2.6 NE 9 13 5 7 1017.9 1017.4 0.0
20/08:30pm 20.9 20.8 15.9 73 3.0 NE 11 17 6 9 1017.8 1017.3 -
20/08:00pm 21.8 21.4 16.1 70 3.4 NE 13 19 7 10 1017.4 1016.9 -
20/07:30pm 22.2 21.8 16.2 69 3.6 NE 13 22 7 12 1017.2 1016.7 -
20/07:00pm 22.1 22.7 15.9 68 3.7 NNE 7 13 4 7 1016.9 1016.4 -
20/06:30pm 23.1 24.5 16.4 66 4.1 NNE 4 4 2 2 1016.7 1016.2 -
20/06:00pm 24.6 25.1 14.1 52 6.2 NE 4 6 2 3 1016.6 1016.1 -
20/05:30pm 25.7 26.4 14.5 50 6.7 ENE 4 4 2 2 1016.5 1016.0 -
20/05:00pm 26.4 26.0 12.5 42 8.1 NE 6 7 3 4 1016.3 1015.8 -
20/04:30pm 26.6 26.0 12.3 41 8.3 NNE 7 11 4 6 1016.4 1015.9 -
20/04:00pm 26.8 26.3 12.5 41 8.3 NNW 7 11 4 6 1016.5 1016.0 -
20/03:30pm 27.2 26.9 13.2 42 8.3 NNW 7 11 4 6 1016.7 1016.2 -
20/03:00pm 27.0 26.7 13.4 43 8.0 N 7 17 4 9 1016.8 1016.3 -
20/02:30pm 26.7 26.6 13.8 45 7.7 N 7 15 4 8 1017.2 1016.7 -
20/02:00pm 27.1 27.8 14.5 46 7.6 N 4 15 2 8 1017.6 1017.1 -
20/01:30pm 27.1 26.9 15.8 50 7.0 NNE 11 15 6 8 1018.2 1017.8 -
20/01:00pm 26.2 26.0 13.7 46 7.4 NNW 7 19 4 10 1018.7 1018.3 0.0
20/12:30pm 25.7 25.6 13.2 46 7.3 N 6 9 3 5 1019.0 1018.6 0.0
20/12:00pm 25.8 26.4 14.3 49 6.9 N 4 11 2 6 1019.6 1019.2 0.0
20/11:30am 24.5 23.8 13.1 49 6.6 ENE 9 17 5 9 1020.0 1019.6 0.0
20/11:00am 24.8 24.3 13.7 50 6.5 NE 9 19 5 10 1020.4 1020.0 0.0
20/10:30am 24.7 23.5 13.9 51 6.4 ENE 13 20 7 11 1020.9 1020.5 0.0
20/10:00am 23.8 22.6 13.9 54 5.8 NNE 13 20 7 11 1021.2 1020.8 0.0
20/09:30am 24.3 23.5 15.0 56 5.6 NE 13 20 7 11 1021.4 1021.0 0.0
20/09:00am 22.9 21.5 14.5 59 5.0 ENE 15 24 8 13 1021.6 1021.2 0.0
20/08:30am 22.7 22.2 15.0 61 4.6 E 11 20 6 11 1021.8 1021.4 0.0
20/08:00am 21.7 23.1 16.4 72 3.2 E 4 9 2 5 1022.0 1021.6 0.0
20/07:30am 20.5 22.3 15.5 73 3.0 CALM 0 0 0 0 1022.0 1021.6 0.0
20/07:00am 19.4 21.1 15.3 77 2.4 CALM 0 0 0 0 1021.9 1021.5 0.0
20/06:30am 17.3 18.9 14.9 86 1.4 CALM 0 0 0 0 1021.6 1021.2 0.0
20/06:00am 16.1 17.8 15.1 94 0.6 CALM 0 2 0 1 1021.4 1021.0 0.0
20/05:30am 15.4 16.1 14.4 94 0.6 WSW 4 4 2 2 1021.2 1020.8 0.0
20/05:00am 15.5 16.6 14.7 95 0.5 WSW 2 4 1 2 1020.9 1020.5 0.0
20/04:30am 15.8 16.7 15.0 95 0.5 WSW 4 6 2 3 1020.5 1020.1 0.0
20/04:00am 16.3 18.1 15.5 95 0.5 CALM 0 6 0 3 1020.4 1020.0 0.0
20/03:30am 16.1 17.7 15.0 93 0.6 CALM 0 0 0 0 1020.3 1019.9 0.0
20/03:00am 16.4 18.0 14.8 90 0.9 CALM 0 0 0 0 1020.3 1019.9 0.0
20/02:30am 16.6 18.2 15.0 90 0.9 CALM 0 0 0 0 1020.5 1020.1 0.0
20/02:00am 16.5 18.0 14.7 89 1.0 CALM 0 0 0 0 1020.8 1020.4 0.0
20/01:30am 17.0 18.6 14.8 87 1.3 CALM 0 0 0 0 1021.1 1020.7 0.0
20/01:00am 17.2 18.8 14.8 86 1.4 CALM 0 0 0 0 1021.3 1020.9 0.0
20/12:30am 17.9 18.3 14.8 82 1.8 ESE 6 7 3 4 1021.7 1021.3 0.0
20/12:00am 18.1 18.3 14.8 81 1.9 E 7 9 4 5 1022.2 1021.8 0.0
 
Date/Time
EST
Temp
°C
App
Temp
°C
Dew
Point
°C
Rel
Hum
%
Delta-T
°C
Wind Press
QNH
hPa
Press
MSL
hPa
Rain since
9am
mm
Dir  Spd
km/h
Gust
km/h
Spd
kts
Gust
kts
19/11:30pm 18.5 18.8 15.0 80 2.1 E 7 9 4 5 1022.6 1022.2 0.0
19/11:00pm 19.1 18.6 15.0 77 2.4 E 11 17 6 9 1023.0 1022.6 0.0
19/10:30pm 19.5 19.0 15.0 75 2.6 ESE 11 17 6 9 1023.3 1022.9 0.0
19/10:00pm 19.7 19.3 15.1 75 2.7 ESE 11 19 6 10 1023.4 1023.0 0.0
19/09:30pm 19.3 19.7 15.2 77 2.4 E 7 11 4 6 1023.8 1023.3 0.0
19/09:00pm 19.0 19.0 15.1 78 2.3 ENE 9 13 5 7 1023.9 1023.4 0.0
19/08:30pm 19.1 18.9 14.8 76 2.5 ENE 9 11 5 6 1023.9 1023.4 0.0
19/08:00pm 20.4 19.9 15.0 71 3.2 NE 11 15 6 8 1023.5 1023.1 0.0
19/07:30pm 20.9 20.0 14.8 68 3.6 ENE 13 15 7 8 1023.0 1022.6 0.0
19/07:00pm 22.1 21.5 14.5 62 4.5 E 11 15 6 8 1022.7 1022.3 0.0
19/06:30pm 22.6 21.9 14.2 59 4.9 E 11 17 6 9 1022.5 1022.1 0.0
19/06:00pm 23.0 20.6 13.8 56 5.4 E 19 22 10 12 1022.1 1021.7 0.0
19/05:30pm 23.3 21.7 15.1 60 4.9 ENE 17 22 9 12 1021.7 1021.3 0.0
19/05:00pm 23.4 23.1 15.5 61 4.8 E 11 15 6 8 1021.5 1021.1 0.0
19/04:30pm 23.6 22.3 14.9 58 5.2 E 15 22 8 12 1021.2 1020.8 0.0
19/04:00pm 24.1 23.1 15.6 59 5.1 ESE 15 20 8 11 1021.2 1020.8 0.0
19/03:30pm 24.0 22.2 15.5 59 5.1 ESE 19 26 10 14 1021.0 1020.6 0.0
19/03:00pm 23.6 21.6 15.6 61 4.8 E 20 30 11 16 1021.2 1020.8 0.0
19/02:30pm 24.4 21.8 15.9 59 5.2 E 24 37 13 20 1021.0 1020.6 0.0
19/02:00pm 25.4 23.4 16.5 58 5.5 E 22 32 12 17 1021.1 1020.7 0.0
19/01:30pm 25.3 23.6 16.2 57 5.6 E 20 28 11 15 1021.3 1020.9 0.0
19/01:00pm 24.9 23.9 16.6 60 5.1 E 17 28 9 15 1021.8 1021.4 0.0
19/12:30pm 22.8 19.3 15.4 63 4.4 ENE 28 39 15 21 1022.4 1022.0 0.0
19/12:00pm 24.6 23.6 16.6 61 4.9 ENE 17 24 9 13 1022.7 1022.3 0.0
19/11:30am 24.9 23.7 17.6 64 4.6 E 20 32 11 17 1022.9 1022.5 0.0
19/11:00am 24.1 21.5 15.9 60 5.0 E 24 37 13 20 1023.0 1022.6 0.0
19/10:30am 23.2 21.2 16.5 66 4.1 E 22 32 12 17 1023.4 1023.0 0.0
19/10:00am 23.3 20.9 16.4 65 4.2 E 24 39 13 21 1023.4 1023.0 0.0
19/09:30am 23.4 20.6 16.4 64 4.3 ESE 26 35 14 19 1023.7 1023.2 0.0
19/09:00am 22.9 21.2 16.2 66 4.1 E 20 30 11 16 1023.9 1023.4 0.4
19/08:30am 22.4 21.8 17.5 74 3.0 E 17 22 9 12 1024.0 1023.5 0.4
19/08:00am 21.0 19.1 16.6 76 2.7 ESE 22 32 12 17 1024.1 1023.6 0.4
19/07:30am 20.8 18.8 16.4 76 2.7 ESE 22 32 12 17 1023.8 1023.3 0.4
19/07:00am 20.7 20.1 16.7 78 2.4 E 15 28 8 15 1023.5 1023.1 0.4
19/06:30am 20.2 19.9 16.4 79 2.3 ESE 13 19 7 10 1023.3 1022.9 0.4
19/06:00am 20.0 20.9 16.6 81 2.1 ESE 7 17 4 9 1022.9 1022.5 0.4
19/05:30am 19.2 20.2 16.8 86 1.5 ESE 7 11 4 6 1022.6 1022.2 0.4
19/05:00am 18.9 20.0 17.0 89 1.2 E 7 11 4 6 1022.5 1022.1 0.4
19/04:30am 18.9 20.0 17.2 90 1.0 ENE 7 13 4 7 1022.4 1022.0 0.4
19/04:00am 18.9 18.4 17.0 89 1.2 E 15 20 8 11 1022.4 1022.0 0.4
19/03:30am 19.5 20.0 16.5 83 1.8 E 9 13 5 7 1022.1 1021.7 0.4
19/03:00am 19.6 19.7 16.4 82 1.9 E 11 19 6 10 1022.1 1021.7 0.4
19/02:30am 19.6 19.7 16.4 82 1.9 E 11 20 6 11 1022.1 1021.7 0.4
19/02:00am 19.5 20.0 16.5 83 1.8 E 9 13 5 7 1022.3 1021.9 0.4
19/01:30am 19.3 20.2 16.7 85 1.6 ENE 7 11 4 6 1022.5 1022.1 0.4
19/01:00am 19.1 20.2 17.1 88 1.2 ENE 7 13 4 7 1022.8 1022.4 0.4
19/12:30am 19.3 19.7 17.3 88 1.2 E 11 17 6 9 1023.0 1022.6 0.4
19/12:00am 19.2 19.2 17.2 88 1.2 E 13 19 7 10 1023.3 1022.9 0.4
 
Date/Time
EST
Temp
°C
App
Temp
°C
Dew
Point
°C
Rel
Hum
%
Delta-T
°C
Wind Press
QNH
hPa
Press
MSL
hPa
Rain since
9am
mm
Dir  Spd
km/h
Gust
km/h
Spd
kts
Gust
kts
18/11:30pm 19.6 20.0 17.2 86 1.5 ESE 11 15 6 8 1023.5 1023.1 0.4
18/11:00pm 19.5 20.4 17.6 89 1.2 ESE 9 13 5 7 1023.8 1023.3 0.4
18/10:30pm 19.4 20.4 17.7 90 1.0 E 9 13 5 7 1024.1 1023.6 0.4
18/10:00pm 19.9 20.4 17.5 86 1.5 E 11 15 6 8 1024.0 1023.5 0.4
18/09:30pm 19.9 19.5 17.1 84 1.7 E 15 22 8 12 1023.9 1023.4 0.4
18/09:00pm 20.5 20.5 17.3 82 2.0 ESE 13 20 7 11 1023.3 1022.9 0.4
18/08:30pm 20.3 21.3 17.7 85 1.6 ESE 9 17 5 9 1023.0 1022.6 0.4
18/08:00pm 19.9 20.6 17.9 88 1.2 E 11 17 6 9 1022.8 1022.4 0.4
18/07:30pm 19.7 21.0 18.4 92 0.8 ENE 9 13 5 7 1022.5 1022.1 0.4
18/07:00pm 20.6 20.8 17.6 83 1.8 ENE 13 19 7 10 1022.1 1021.7 0.0
18/06:30pm 21.5 20.3 17.1 76 2.7 E 19 28 10 15 1021.6 1021.2 0.0
18/06:00pm 21.5 21.5 17.3 77 2.6 E 13 22 7 12 1021.1 1020.7 0.0
18/05:30pm 21.6 21.1 17.0 75 2.8 E 15 22 8 12 1020.6 1020.2 0.0
18/05:00pm 21.7 19.6 17.1 75 2.8 E 24 37 13 20 1020.4 1020.0 0.0
18/04:30pm 21.8 20.8 18.0 79 2.4 E 20 32 11 17 1019.9 1019.5 0.0
18/04:00pm 22.1 21.2 17.7 76 2.7 E 19 30 10 16 1019.7 1019.3 0.0
18/03:30pm 21.9 19.6 17.5 76 2.7 E 26 35 14 19 1019.4 1019.0 0.0
18/03:00pm 22.1 20.4 18.1 78 2.5 E 24 43 13 23 1019.6 1019.2 0.0

Other Formats:

Comma delimited format used in spreadsheet applications
http://www.bom.gov.au/fwo/IDQ60801/IDQ60801.95543.axf

JavaScript Object Notation format (JSON) in row-major order
http://www.bom.gov.au/fwo/IDQ60801/IDQ60801.95543.json